Time,TemperatureF,DewpointF,PressureIn,WindDirection,WindDirectionDegrees,WindSpeedMPH,WindSpeedGustMPH,Humidity,HourlyPrecipIn,Conditions,Clouds,dailyrainin,SoftwareType,DateUTC
2013-07-07 00:00:00,68.4,46.8,29.79,NNW,338,1.0,-999.0,46,0.00,,,0.00,Wunderground v.1.15,2013-07-07 07:00:00,
2013-07-07 00:05:00,68.4,46.8,29.79,NNW,338,1.0,-999.0,46,0.00,,,0.00,Wunderground v.1.15,2013-07-07 07:05:00,
2013-07-07 00:10:00,68.4,46.8,29.79,NNW,338,1.0,-999.0,46,0.00,,,0.00,Wunderground v.1.15,2013-07-07 07:10:00,
2013-07-07 00:15:00,68.3,47.3,29.79,NNW,338,1.0,-999.0,47,0.00,,,0.00,Wunderground v.1.15,2013-07-07 07:15:00,
2013-07-07 00:20:00,68.3,47.3,29.79,NNW,338,1.0,-999.0,47,0.00,,,0.00,Wunderground v.1.15,2013-07-07 07:20:00,
2013-07-07 00:25:00,67.8,46.8,29.79,NNW,338,0.0,-999.0,47,0.00,,,0.00,Wunderground v.1.15,2013-07-07 07:25:00,
2013-07-07 00:30:00,67.8,46.8,29.79,NNW,338,0.0,-999.0,47,0.00,,,0.00,Wunderground v.1.15,2013-07-07 07:30:00,
2013-07-07 00:35:00,67.7,47.3,29.79,NNW,338,1.0,-999.0,48,0.00,,,0.00,Wunderground v.1.15,2013-07-07 07:35:00,
2013-07-07 00:40:00,67.7,47.3,29.79,NNW,338,1.0,-999.0,48,0.00,,,0.00,Wunderground v.1.15,2013-07-07 07:40:00,
2013-07-07 00:45:00,67.4,47.0,29.79,NNW,338,1.0,-999.0,48,0.00,,,0.00,Wunderground v.1.15,2013-07-07 07:45:00,
2013-07-07 00:50:00,67.4,47.0,29.79,NNW,338,1.0,-999.0,48,0.00,,,0.00,Wunderground v.1.15,2013-07-07 07:50:00,
2013-07-07 00:55:00,66.7,47.5,29.80,NNW,338,1.0,-999.0,50,0.00,,,0.00,Wunderground v.1.15,2013-07-07 07:55:00,
2013-07-07 01:00:00,66.7,47.5,29.80,NNW,338,1.0,-999.0,50,0.00,,,0.00,Wunderground v.1.15,2013-07-07 08:00:00,
2013-07-07 01:05:00,66.2,47.0,29.79,NNW,338,1.0,-999.0,50,0.00,,,0.00,Wunderground v.1.15,2013-07-07 08:05:00,
2013-07-07 01:10:00,66.2,47.0,29.79,NNW,338,1.0,-999.0,50,0.00,,,0.00,Wunderground v.1.15,2013-07-07 08:10:00,
2013-07-07 01:15:00,65.9,47.3,29.79,NNW,338,1.0,-999.0,51,0.00,,,0.00,Wunderground v.1.15,2013-07-07 08:15:00,
2013-07-07 01:20:00,65.9,47.3,29.79,NNW,338,1.0,-999.0,51,0.00,,,0.00,Wunderground v.1.15,2013-07-07 08:20:00,
2013-07-07 01:25:00,65.9,47.3,29.80,NNW,338,1.0,-999.0,51,0.00,,,0.00,Wunderground v.1.15,2013-07-07 08:25:00,
2013-07-07 01:30:00,65.9,47.3,29.80,NNW,338,1.0,-999.0,51,0.00,,,0.00,Wunderground v.1.15,2013-07-07 08:30:00,
2013-07-07 01:35:00,65.8,47.2,29.80,NNW,338,1.0,-999.0,51,0.00,,,0.00,Wunderground v.1.15,2013-07-07 08:35:00,
2013-07-07 01:40:00,65.8,47.2,29.80,NNW,338,1.0,-999.0,51,0.00,,,0.00,Wunderground v.1.15,2013-07-07 08:40:00,
2013-07-07 01:45:00,66.0,47.3,29.80,NNW,338,1.0,-999.0,51,0.00,,,0.00,Wunderground v.1.15,2013-07-07 08:45:00,
2013-07-07 01:50:00,66.0,47.3,29.80,NNW,338,1.0,-999.0,51,0.00,,,0.00,Wunderground v.1.15,2013-07-07 08:50:00,
2013-07-07 01:55:00,66.4,47.7,29.80,NNW,338,0.0,-999.0,51,0.00,,,0.00,Wunderground v.1.15,2013-07-07 08:55:00,
2013-07-07 02:00:00,66.4,47.7,29.80,NNW,338,0.0,-999.0,51,0.00,,,0.00,Wunderground v.1.15,2013-07-07 09:00:00,
2013-07-07 02:05:00,66.3,47.6,29.80,NNW,338,1.0,-999.0,51,0.00,,,0.00,Wunderground v.1.15,2013-07-07 09:05:00,
2013-07-07 02:10:00,66.3,47.6,29.80,NNW,338,1.0,-999.0,51,0.00,,,0.00,Wunderground v.1.15,2013-07-07 09:10:00,
2013-07-07 02:15:00,65.5,47.9,29.80,NNW,338,2.0,-999.0,53,0.00,,,0.00,Wunderground v.1.15,2013-07-07 09:15:00,
2013-07-07 02:20:00,65.5,47.9,29.80,NNW,338,2.0,-999.0,53,0.00,,,0.00,Wunderground v.1.15,2013-07-07 09:20:00,
2013-07-07 02:25:00,65.0,47.4,29.80,NNW,338,1.0,-999.0,53,0.00,,,0.00,Wunderground v.1.15,2013-07-07 09:25:00,
2013-07-07 02:30:00,65.0,47.4,29.80,NNW,338,1.0,-999.0,53,0.00,,,0.00,Wunderground v.1.15,2013-07-07 09:30:00,
2013-07-07 02:35:00,64.7,47.7,29.80,NNW,338,1.0,-999.0,54,0.00,,,0.00,Wunderground v.1.15,2013-07-07 09:35:00,
2013-07-07 02:40:00,64.7,47.7,29.80,NNW,338,1.0,-999.0,54,0.00,,,0.00,Wunderground v.1.15,2013-07-07 09:40:00,
2013-07-07 02:45:00,64.8,47.3,29.80,NNW,338,1.0,-999.0,53,0.00,,,0.00,Wunderground v.1.15,2013-07-07 09:45:00,
2013-07-07 02:50:00,64.8,47.3,29.80,NNW,338,1.0,-999.0,53,0.00,,,0.00,Wunderground v.1.15,2013-07-07 09:50:00,
2013-07-07 02:55:00,65.0,47.4,29.79,NNW,338,1.0,-999.0,53,0.00,,,0.00,Wunderground v.1.15,2013-07-07 09:55:00,
2013-07-07 03:00:00,65.0,47.4,29.79,NNW,338,1.0,-999.0,53,0.00,,,0.00,Wunderground v.1.15,2013-07-07 10:00:00,
2013-07-07 03:05:00,65.2,47.1,29.79,NNW,338,0.0,-999.0,52,0.00,,,0.00,Wunderground v.1.15,2013-07-07 10:05:00,
2013-07-07 03:10:00,65.2,47.1,29.79,NNW,338,0.0,-999.0,52,0.00,,,0.00,Wunderground v.1.15,2013-07-07 10:10:00,
2013-07-07 03:15:00,65.5,46.9,29.79,NNW,338,1.0,-999.0,51,0.00,,,0.00,Wunderground v.1.15,2013-07-07 10:15:00,
2013-07-07 03:20:00,65.5,46.9,29.79,NNW,338,1.0,-999.0,51,0.00,,,0.00,Wunderground v.1.15,2013-07-07 10:20:00,
2013-07-07 03:25:00,65.7,46.5,29.79,NNW,338,1.0,-999.0,50,0.00,,,0.00,Wunderground v.1.15,2013-07-07 10:25:00,
2013-07-07 03:30:00,65.7,46.5,29.79,NNW,338,1.0,-999.0,50,0.00,,,0.00,Wunderground v.1.15,2013-07-07 10:30:00,
2013-07-07 03:35:00,65.9,47.3,29.79,NNW,338,1.0,-999.0,51,0.00,,,0.00,Wunderground v.1.15,2013-07-07 10:35:00,
2013-07-07 03:40:00,65.9,47.3,29.79,NNW,338,1.0,-999.0,51,0.00,,,0.00,Wunderground v.1.15,2013-07-07 10:40:00,
2013-07-07 03:45:00,65.3,47.7,29.79,NNW,338,2.0,-999.0,53,0.00,,,0.00,Wunderground v.1.15,2013-07-07 10:45:00,
2013-07-07 03:50:00,65.3,47.7,29.79,NNW,338,2.0,-999.0,53,0.00,,,0.00,Wunderground v.1.15,2013-07-07 10:50:00,
2013-07-07 03:55:00,64.5,47.0,29.80,NNW,338,1.0,-999.0,53,0.00,,,0.00,Wunderground v.1.15,2013-07-07 10:55:00,
2013-07-07 04:00:00,64.5,47.0,29.80,NNW,338,1.0,-999.0,53,0.00,,,0.00,Wunderground v.1.15,2013-07-07 11:00:00,
2013-07-07 04:05:00,64.0,47.0,29.80,NNW,338,2.0,-999.0,54,0.00,,,0.00,Wunderground v.1.15,2013-07-07 11:05:00,
2013-07-07 04:10:00,64.0,47.0,29.80,NNW,338,2.0,-999.0,54,0.00,,,0.00,Wunderground v.1.15,2013-07-07 11:10:00,
2013-07-07 04:15:00,63.9,45.9,29.80,NNW,338,1.0,-999.0,52,0.00,,,0.00,Wunderground v.1.15,2013-07-07 11:15:00,
2013-07-07 04:20:00,63.9,45.9,29.80,NNW,338,1.0,-999.0,52,0.00,,,0.00,Wunderground v.1.15,2013-07-07 11:20:00,
2013-07-07 04:25:00,64.4,45.9,29.80,NNW,338,1.0,-999.0,51,0.00,,,0.00,Wunderground v.1.15,2013-07-07 11:25:00,
2013-07-07 04:30:00,64.4,45.9,29.80,NNW,338,1.0,-999.0,51,0.00,,,0.00,Wunderground v.1.15,2013-07-07 11:30:00,
2013-07-07 04:35:00,64.6,45.5,29.80,NNW,338,1.0,-999.0,50,0.00,,,0.00,Wunderground v.1.15,2013-07-07 11:35:00,
2013-07-07 04:40:00,64.6,45.5,29.80,NNW,338,1.0,-999.0,50,0.00,,,0.00,Wunderground v.1.15,2013-07-07 11:40:00,
2013-07-07 04:45:00,64.4,45.3,29.80,NNW,338,1.0,-999.0,50,0.00,,,0.00,Wunderground v.1.15,2013-07-07 11:45:00,
2013-07-07 04:50:00,64.4,45.3,29.80,NNW,338,1.0,-999.0,50,0.00,,,0.00,Wunderground v.1.15,2013-07-07 11:50:00,
2013-07-07 04:55:00,64.1,45.1,29.80,NNW,338,1.0,-999.0,50,0.00,,,0.00,Wunderground v.1.15,2013-07-07 11:55:00,
2013-07-07 05:00:00,64.1,45.1,29.80,NNW,338,1.0,-999.0,50,0.00,,,0.00,Wunderground v.1.15,2013-07-07 12:00:00,
2013-07-07 05:05:00,64.3,43.6,29.80,NNW,338,1.0,-999.0,47,0.00,,,0.00,Wunderground v.1.15,2013-07-07 12:05:00,
2013-07-07 05:10:00,64.3,43.6,29.80,NNW,338,1.0,-999.0,47,0.00,,,0.00,Wunderground v.1.15,2013-07-07 12:10:00,
2013-07-07 05:15:00,64.7,44.0,29.80,NNW,338,1.0,-999.0,47,0.00,,,0.00,Wunderground v.1.15,2013-07-07 12:15:00,
2013-07-07 05:20:00,64.7,44.0,29.80,NNW,338,1.0,-999.0,47,0.00,,,0.00,Wunderground v.1.15,2013-07-07 12:20:00,
2013-07-07 05:25:00,64.6,44.5,29.80,NNW,338,1.0,-999.0,48,0.00,,,0.00,Wunderground v.1.15,2013-07-07 12:25:00,
2013-07-07 05:30:00,64.6,44.5,29.80,NNW,338,1.0,-999.0,48,0.00,,,0.00,Wunderground v.1.15,2013-07-07 12:30:00,
2013-07-07 05:35:00,63.9,44.4,29.81,NNW,338,1.0,-999.0,49,0.00,,,0.00,Wunderground v.1.15,2013-07-07 12:35:00,
2013-07-07 05:40:00,63.9,44.4,29.81,NNW,338,1.0,-999.0,49,0.00,,,0.00,Wunderground v.1.15,2013-07-07 12:40:00,
2013-07-07 05:45:00,63.8,43.2,29.81,NNW,338,1.0,-999.0,47,0.00,,,0.00,Wunderground v.1.15,2013-07-07 12:45:00,
2013-07-07 05:50:00,63.8,43.2,29.81,NNW,338,1.0,-999.0,47,0.00,,,0.00,Wunderground v.1.15,2013-07-07 12:50:00,
2013-07-07 05:55:00,64.1,43.4,29.81,NNW,338,1.0,-999.0,47,0.00,,,0.00,Wunderground v.1.15,2013-07-07 12:55:00,
2013-07-07 06:00:00,64.1,43.4,29.81,NNW,338,1.0,-999.0,47,0.00,,,0.00,Wunderground v.1.15,2013-07-07 13:00:00,
2013-07-07 06:05:00,63.9,44.4,29.81,NNW,338,1.0,-999.0,49,0.00,,,0.00,Wunderground v.1.15,2013-07-07 13:05:00,
2013-07-07 06:10:00,63.9,44.4,29.81,NNW,338,1.0,-999.0,49,0.00,,,0.00,Wunderground v.1.15,2013-07-07 13:10:00,
2013-07-07 06:15:00,63.2,44.2,29.82,NNW,338,1.0,-999.0,50,0.00,,,0.00,Wunderground v.1.15,2013-07-07 13:15:00,
2013-07-07 06:20:00,63.2,44.2,29.82,NNW,338,1.0,-999.0,50,0.00,,,0.00,Wunderground v.1.15,2013-07-07 13:20:00,
2013-07-07 06:25:00,62.5,44.1,29.82,NNW,338,2.0,-999.0,51,0.00,,,0.00,Wunderground v.1.15,2013-07-07 13:25:00,
2013-07-07 06:30:00,62.5,44.1,29.82,NNW,338,2.0,-999.0,51,0.00,,,0.00,Wunderground v.1.15,2013-07-07 13:30:00,
2013-07-07 06:35:00,62.2,43.3,29.82,NW,315,3.0,-999.0,50,0.00,,,0.00,Wunderground v.1.15,2013-07-07 13:35:00,
2013-07-07 06:40:00,62.2,43.3,29.82,NW,315,3.0,-999.0,50,0.00,,,0.00,Wunderground v.1.15,2013-07-07 13:40:00,
2013-07-07 06:45:00,62.5,43.1,29.82,NW,315,2.0,-999.0,49,0.00,,,0.00,Wunderground v.1.15,2013-07-07 13:45:00,
2013-07-07 06:50:00,62.5,43.1,29.82,NW,315,2.0,-999.0,49,0.00,,,0.00,Wunderground v.1.15,2013-07-07 13:50:00,
2013-07-07 06:55:00,62.8,43.9,29.82,NW,315,2.0,-999.0,50,0.00,,,0.00,Wunderground v.1.15,2013-07-07 13:55:00,
2013-07-07 07:00:00,62.8,43.9,29.82,NW,315,2.0,-999.0,50,0.00,,,0.00,Wunderground v.1.15,2013-07-07 14:00:00,
2013-07-07 07:05:00,63.1,44.2,29.82,NW,315,1.0,-999.0,50,0.00,,,0.00,Wunderground v.1.15,2013-07-07 14:05:00,
2013-07-07 07:10:00,63.1,44.2,29.82,NW,315,1.0,-999.0,50,0.00,,,0.00,Wunderground v.1.15,2013-07-07 14:10:00,
2013-07-07 07:15:00,63.7,44.7,29.82,NW,315,1.0,-999.0,50,0.00,,,0.00,Wunderground v.1.15,2013-07-07 14:15:00,
2013-07-07 07:20:00,63.7,44.7,29.82,NW,315,1.0,-999.0,50,0.00,,,0.00,Wunderground v.1.15,2013-07-07 14:20:00,
2013-07-07 07:25:00,65.7,45.5,29.83,NW,315,1.0,-999.0,48,0.00,,,0.00,Wunderground v.1.15,2013-07-07 14:25:00,
2013-07-07 07:30:00,65.7,45.5,29.83,NW,315,1.0,-999.0,48,0.00,,,0.00,Wunderground v.1.15,2013-07-07 14:30:00,
2013-07-07 07:35:00,67.0,45.5,29.83,NNW,338,2.0,-999.0,46,0.00,,,0.00,Wunderground v.1.15,2013-07-07 14:35:00,
2013-07-07 07:40:00,67.0,45.5,29.83,NNW,338,2.0,-999.0,46,0.00,,,0.00,Wunderground v.1.15,2013-07-07 14:40:00,
2013-07-07 07:45:00,67.5,46.0,29.83,NNW,338,2.0,-999.0,46,0.00,,,0.00,Wunderground v.1.15,2013-07-07 14:45:00,
2013-07-07 07:50:00,67.5,46.0,29.83,NNW,338,2.0,-999.0,46,0.00,,,0.00,Wunderground v.1.15,2013-07-07 14:50:00,
2013-07-07 07:55:00,68.3,46.1,29.83,NNW,338,1.0,-999.0,45,0.00,,,0.00,Wunderground v.1.15,2013-07-07 14:55:00,
2013-07-07 08:00:00,68.3,46.1,29.83,NNW,338,1.0,-999.0,45,0.00,,,0.00,Wunderground v.1.15,2013-07-07 15:00:00,
2013-07-07 08:05:00,69.7,46.8,29.84,NNW,338,1.0,-999.0,44,0.00,,,0.00,Wunderground v.1.15,2013-07-07 15:05:00,
2013-07-07 08:10:00,69.7,46.8,29.84,NNW,338,1.0,-999.0,44,0.00,,,0.00,Wunderground v.1.15,2013-07-07 15:10:00,
2013-07-07 08:15:00,69.8,47.5,29.84,NNW,338,1.0,-999.0,45,0.00,,,0.00,Wunderground v.1.15,2013-07-07 15:15:00,
2013-07-07 08:20:00,69.8,47.5,29.84,NNW,338,1.0,-999.0,45,0.00,,,0.00,Wunderground v.1.15,2013-07-07 15:20:00,
2013-07-07 08:25:00,71.4,48.3,29.84,NNW,338,1.0,-999.0,44,0.00,,,0.00,Wunderground v.1.15,2013-07-07 15:25:00,
2013-07-07 08:30:00,71.4,48.3,29.84,NNW,338,1.0,-999.0,44,0.00,,,0.00,Wunderground v.1.15,2013-07-07 15:30:00,
2013-07-07 08:35:00,73.4,50.2,29.84,NNW,338,0.0,-999.0,44,0.00,,,0.00,Wunderground v.1.15,2013-07-07 15:35:00,
2013-07-07 08:40:00,73.4,50.2,29.84,NNW,338,0.0,-999.0,44,0.00,,,0.00,Wunderground v.1.15,2013-07-07 15:40:00,
2013-07-07 08:45:00,74.7,50.1,29.84,NNW,338,0.0,-999.0,42,0.00,,,0.00,Wunderground v.1.15,2013-07-07 15:45:00,
2013-07-07 08:50:00,74.7,50.1,29.84,NNW,338,0.0,-999.0,42,0.00,,,0.00,Wunderground v.1.15,2013-07-07 15:50:00,
2013-07-07 08:55:00,74.2,50.3,29.84,NNW,338,1.0,-999.0,43,0.00,,,0.00,Wunderground v.1.15,2013-07-07 15:55:00,
2013-07-07 09:00:00,74.2,50.3,29.84,NNW,338,1.0,-999.0,43,0.00,,,0.00,Wunderground v.1.15,2013-07-07 16:00:00,
2013-07-07 09:05:00,75.0,50.3,29.84,NNW,338,1.0,-999.0,42,0.00,,,0.00,Wunderground v.1.15,2013-07-07 16:05:00,
2013-07-07 09:10:00,75.0,50.3,29.84,NNW,338,1.0,-999.0,42,0.00,,,0.00,Wunderground v.1.15,2013-07-07 16:10:00,
2013-07-07 09:15:00,77.5,49.9,29.84,NNW,338,1.0,-999.0,38,0.00,,,0.00,Wunderground v.1.15,2013-07-07 16:15:00,
2013-07-07 09:20:00,77.5,49.9,29.84,NNW,338,1.0,-999.0,38,0.00,,,0.00,Wunderground v.1.15,2013-07-07 16:20:00,
2013-07-07 09:25:00,78.0,50.3,29.84,NNW,338,1.0,-999.0,38,0.00,,,0.00,Wunderground v.1.15,2013-07-07 16:25:00,
2013-07-07 09:30:00,78.0,50.3,29.84,NNW,338,1.0,-999.0,38,0.00,,,0.00,Wunderground v.1.15,2013-07-07 16:30:00,
2013-07-07 09:35:00,78.7,51.0,29.84,NNW,338,0.0,-999.0,38,0.00,,,0.00,Wunderground v.1.15,2013-07-07 16:35:00,
2013-07-07 09:40:00,78.7,51.0,29.84,NNW,338,0.0,-999.0,38,0.00,,,0.00,Wunderground v.1.15,2013-07-07 16:40:00,
2013-07-07 09:45:00,81.0,48.4,29.84,NW,315,1.0,-999.0,32,0.00,,,0.00,Wunderground v.1.15,2013-07-07 16:45:00,
2013-07-07 09:50:00,81.0,48.4,29.84,NW,315,1.0,-999.0,32,0.00,,,0.00,Wunderground v.1.15,2013-07-07 16:50:00,
2013-07-07 09:55:00,82.0,47.5,29.84,NW,315,0.0,-999.0,30,0.00,,,0.00,Wunderground v.1.15,2013-07-07 16:55:00,
2013-07-07 10:00:00,82.0,47.5,29.84,NW,315,0.0,-999.0,30,0.00,,,0.00,Wunderground v.1.15,2013-07-07 17:00:00,
2013-07-07 10:05:00,82.8,41.2,29.84,NW,315,1.0,-999.0,23,0.00,,,0.00,Wunderground v.1.15,2013-07-07 17:05:00,
2013-07-07 10:10:00,82.8,41.2,29.84,NW,315,1.0,-999.0,23,0.00,,,0.00,Wunderground v.1.15,2013-07-07 17:10:00,
2013-07-07 10:15:00,82.9,40.1,29.84,ESE,113,1.0,-999.0,22,0.00,,,0.00,Wunderground v.1.15,2013-07-07 17:15:00,
2013-07-07 10:20:00,82.9,40.1,29.84,ESE,113,1.0,-999.0,22,0.00,,,0.00,Wunderground v.1.15,2013-07-07 17:20:00,
2013-07-07 10:25:00,83.7,45.2,29.84,WNW,293,1.0,-999.0,26,0.00,,,0.00,Wunderground v.1.15,2013-07-07 17:25:00,
2013-07-07 10:30:00,83.7,45.2,29.84,WNW,293,1.0,-999.0,26,0.00,,,0.00,Wunderground v.1.15,2013-07-07 17:30:00,
2013-07-07 10:35:00,84.2,43.5,29.84,ESE,113,2.0,-999.0,24,0.00,,,0.00,Wunderground v.1.15,2013-07-07 17:35:00,
2013-07-07 10:40:00,84.2,43.5,29.84,ESE,113,2.0,-999.0,24,0.00,,,0.00,Wunderground v.1.15,2013-07-07 17:40:00,
2013-07-07 10:45:00,84.2,43.5,29.84,SSE,158,1.0,-999.0,24,0.00,,,0.00,Wunderground v.1.15,2013-07-07 17:45:00,
2013-07-07 10:50:00,84.2,43.5,29.84,SSE,158,1.0,-999.0,24,0.00,,,0.00,Wunderground v.1.15,2013-07-07 17:50:00,
2013-07-07 10:55:00,85.0,45.2,29.84,ESE,113,1.0,-999.0,25,0.00,,,0.00,Wunderground v.1.15,2013-07-07 17:55:00,
2013-07-07 11:00:00,85.0,45.2,29.84,ESE,113,1.0,-999.0,25,0.00,,,0.00,Wunderground v.1.15,2013-07-07 18:00:00,
2013-07-07 11:05:00,86.1,44.0,29.85,ESE,113,2.0,-999.0,23,0.00,,,0.00,Wunderground v.1.15,2013-07-07 18:05:00,
2013-07-07 11:10:00,86.1,44.0,29.85,ESE,113,2.0,-999.0,23,0.00,,,0.00,Wunderground v.1.15,2013-07-07 18:10:00,
2013-07-07 11:15:00,86.2,42.9,29.85,SE,135,2.0,-999.0,22,0.00,,,0.00,Wunderground v.1.15,2013-07-07 18:15:00,
2013-07-07 11:20:00,86.2,42.9,29.85,SE,135,2.0,-999.0,22,0.00,,,0.00,Wunderground v.1.15,2013-07-07 18:20:00,
2013-07-07 11:25:00,85.7,43.6,29.85,SE,135,2.0,-999.0,23,0.00,,,0.00,Wunderground v.1.15,2013-07-07 18:25:00,
2013-07-07 11:30:00,85.7,43.6,29.85,SE,135,2.0,-999.0,23,0.00,,,0.00,Wunderground v.1.15,2013-07-07 18:30:00,
2013-07-07 11:35:00,86.6,44.4,29.85,SE,135,2.0,-999.0,23,0.00,,,0.00,Wunderground v.1.15,2013-07-07 18:35:00,
2013-07-07 11:40:00,86.6,44.4,29.85,SE,135,2.0,-999.0,23,0.00,,,0.00,Wunderground v.1.15,2013-07-07 18:40:00,
2013-07-07 11:45:00,86.3,46.3,29.84,SE,135,2.0,-999.0,25,0.00,,,0.00,Wunderground v.1.15,2013-07-07 18:45:00,
2013-07-07 11:50:00,86.3,46.3,29.84,SE,135,2.0,-999.0,25,0.00,,,0.00,Wunderground v.1.15,2013-07-07 18:50:00,
2013-07-07 11:55:00,87.4,45.1,29.84,ESE,113,2.0,-999.0,23,0.00,,,0.00,Wunderground v.1.15,2013-07-07 18:55:00,
2013-07-07 12:00:00,87.4,45.1,29.84,ESE,113,2.0,-999.0,23,0.00,,,0.00,Wunderground v.1.15,2013-07-07 19:00:00,
2013-07-07 12:05:00,87.5,46.3,29.84,SE,135,2.0,-999.0,24,0.00,,,0.00,Wunderground v.1.15,2013-07-07 19:05:00,
2013-07-07 12:10:00,87.5,46.3,29.84,SE,135,2.0,-999.0,24,0.00,,,0.00,Wunderground v.1.15,2013-07-07 19:10:00,
2013-07-07 12:15:00,87.8,45.4,29.85,SSE,158,3.0,-999.0,23,0.00,,,0.00,Wunderground v.1.15,2013-07-07 19:15:00,
2013-07-07 12:20:00,87.8,45.4,29.85,SSE,158,3.0,-999.0,23,0.00,,,0.00,Wunderground v.1.15,2013-07-07 19:20:00,
2013-07-07 12:25:00,87.9,44.3,29.85,SE,135,3.0,-999.0,22,0.00,,,0.00,Wunderground v.1.15,2013-07-07 19:25:00,
2013-07-07 12:30:00,87.9,44.3,29.85,SE,135,3.0,-999.0,22,0.00,,,0.00,Wunderground v.1.15,2013-07-07 19:30:00,
2013-07-07 12:35:00,88.3,42.1,29.85,SSE,158,3.0,-999.0,20,0.00,,,0.00,Wunderground v.1.15,2013-07-07 19:35:00,
2013-07-07 12:40:00,88.3,42.1,29.85,SSE,158,3.0,-999.0,20,0.00,,,0.00,Wunderground v.1.15,2013-07-07 19:40:00,
2013-07-07 12:45:00,88.2,45.7,29.85,ESE,113,2.0,-999.0,23,0.00,,,0.00,Wunderground v.1.15,2013-07-07 19:45:00,
2013-07-07 12:50:00,88.2,45.7,29.85,ESE,113,2.0,-999.0,23,0.00,,,0.00,Wunderground v.1.15,2013-07-07 19:50:00,
2013-07-07 12:55:00,88.1,48.9,29.84,ESE,113,2.0,-999.0,26,0.00,,,0.00,Wunderground v.1.15,2013-07-07 19:55:00,
2013-07-07 13:00:00,88.1,48.9,29.84,ESE,113,2.0,-999.0,26,0.00,,,0.00,Wunderground v.1.15,2013-07-07 20:00:00,
2013-07-07 13:05:00,88.4,50.2,29.84,ESE,113,2.0,-999.0,27,0.00,,,0.00,Wunderground v.1.15,2013-07-07 20:05:00,
2013-07-07 13:10:00,88.4,50.2,29.84,ESE,113,2.0,-999.0,27,0.00,,,0.00,Wunderground v.1.15,2013-07-07 20:10:00,
2013-07-07 13:15:00,88.0,49.8,29.84,ESE,113,2.0,-999.0,27,0.00,,,0.00,Wunderground v.1.15,2013-07-07 20:15:00,
2013-07-07 13:20:00,88.0,49.8,29.84,ESE,113,2.0,-999.0,27,0.00,,,0.00,Wunderground v.1.15,2013-07-07 20:20:00,
2013-07-07 13:25:00,88.3,48.0,29.84,East,90,2.0,-999.0,25,0.00,,,0.00,Wunderground v.1.15,2013-07-07 20:25:00,
2013-07-07 13:30:00,88.3,48.0,29.84,East,90,2.0,-999.0,25,0.00,,,0.00,Wunderground v.1.15,2013-07-07 20:30:00,
2013-07-07 13:35:00,88.7,47.3,29.84,WSW,248,2.0,-999.0,24,0.00,,,0.00,Wunderground v.1.15,2013-07-07 20:35:00,
2013-07-07 13:40:00,88.7,47.3,29.84,WSW,248,2.0,-999.0,24,0.00,,,0.00,Wunderground v.1.15,2013-07-07 20:40:00,
2013-07-07 13:45:00,88.9,46.3,29.84,SE,135,3.0,-999.0,23,0.00,,,0.00,Wunderground v.1.15,2013-07-07 20:45:00,
2013-07-07 13:50:00,88.9,46.3,29.84,SE,135,3.0,-999.0,23,0.00,,,0.00,Wunderground v.1.15,2013-07-07 20:50:00,
2013-07-07 13:55:00,88.3,45.8,29.84,SSW,203,2.0,-999.0,23,0.00,,,0.00,Wunderground v.1.15,2013-07-07 20:55:00,
2013-07-07 14:00:00,88.3,45.8,29.84,SSW,203,2.0,-999.0,23,0.00,,,0.00,Wunderground v.1.15,2013-07-07 21:00:00,
2013-07-07 14:05:00,87.6,46.3,29.84,South,180,2.0,-999.0,24,0.00,,,0.00,Wunderground v.1.15,2013-07-07 21:05:00,
2013-07-07 14:10:00,87.6,46.3,29.84,South,180,2.0,-999.0,24,0.00,,,0.00,Wunderground v.1.15,2013-07-07 21:10:00,
2013-07-07 14:15:00,88.2,44.5,29.84,SE,135,2.0,-999.0,22,0.00,,,0.00,Wunderground v.1.15,2013-07-07 21:15:00,
2013-07-07 14:20:00,88.2,44.5,29.84,SE,135,2.0,-999.0,22,0.00,,,0.00,Wunderground v.1.15,2013-07-07 21:20:00,
2013-07-07 14:25:00,87.9,45.5,29.84,SE,135,3.0,-999.0,23,0.00,,,0.00,Wunderground v.1.15,2013-07-07 21:25:00,
2013-07-07 14:30:00,87.9,45.5,29.84,SE,135,3.0,-999.0,23,0.00,,,0.00,Wunderground v.1.15,2013-07-07 21:30:00,
2013-07-07 14:35:00,87.9,43.1,29.84,SE,135,3.0,-999.0,21,0.00,,,0.00,Wunderground v.1.15,2013-07-07 21:35:00,
2013-07-07 14:40:00,87.9,43.1,29.84,SE,135,3.0,-999.0,21,0.00,,,0.00,Wunderground v.1.15,2013-07-07 21:40:00,
2013-07-07 14:45:00,88.1,44.5,29.84,SSE,158,2.0,-999.0,22,0.00,,,0.00,Wunderground v.1.15,2013-07-07 21:45:00,
2013-07-07 14:50:00,88.1,44.5,29.84,SSE,158,2.0,-999.0,22,0.00,,,0.00,Wunderground v.1.15,2013-07-07 21:50:00,
2013-07-07 14:55:00,88.4,44.7,29.84,SE,135,2.0,-999.0,22,0.00,,,0.00,Wunderground v.1.15,2013-07-07 21:55:00,
2013-07-07 15:00:00,88.4,44.7,29.84,SE,135,2.0,-999.0,22,0.00,,,0.00,Wunderground v.1.15,2013-07-07 22:00:00,
2013-07-07 15:05:00,88.6,44.9,29.84,SE,135,3.0,-999.0,22,0.00,,,0.00,Wunderground v.1.15,2013-07-07 22:05:00,
2013-07-07 15:10:00,88.6,44.9,29.84,SE,135,3.0,-999.0,22,0.00,,,0.00,Wunderground v.1.15,2013-07-07 22:10:00,
2013-07-07 15:15:00,87.6,46.3,29.84,SSE,158,2.0,-999.0,24,0.00,,,0.00,Wunderground v.1.15,2013-07-07 22:15:00,
2013-07-07 15:20:00,87.6,46.3,29.84,SSE,158,2.0,-999.0,24,0.00,,,0.00,Wunderground v.1.15,2013-07-07 22:20:00,
2013-07-07 15:25:00,88.2,45.7,29.84,ESE,113,2.0,-999.0,23,0.00,,,0.00,Wunderground v.1.15,2013-07-07 22:25:00,
2013-07-07 15:30:00,88.2,45.7,29.84,ESE,113,2.0,-999.0,23,0.00,,,0.00,Wunderground v.1.15,2013-07-07 22:30:00,
2013-07-07 15:35:00,88.3,45.8,29.83,SE,135,2.0,-999.0,23,0.00,,,0.00,Wunderground v.1.15,2013-07-07 22:35:00,
2013-07-07 15:40:00,88.3,45.8,29.83,SE,135,2.0,-999.0,23,0.00,,,0.00,Wunderground v.1.15,2013-07-07 22:40:00,
2013-07-07 15:45:00,88.3,46.9,29.83,SE,135,1.0,-999.0,24,0.00,,,0.00,Wunderground v.1.15,2013-07-07 22:45:00,
2013-07-07 15:50:00,88.3,46.9,29.83,SE,135,1.0,-999.0,24,0.00,,,0.00,Wunderground v.1.15,2013-07-07 22:50:00,
2013-07-07 15:55:00,88.1,46.8,29.83,ESE,113,2.0,-999.0,24,0.00,,,0.00,Wunderground v.1.15,2013-07-07 22:55:00,
2013-07-07 16:00:00,88.1,46.8,29.83,ESE,113,2.0,-999.0,24,0.00,,,0.00,Wunderground v.1.15,2013-07-07 23:00:00,
2013-07-07 16:05:00,87.8,46.5,29.83,SE,135,2.0,-999.0,24,0.00,,,0.00,Wunderground v.1.15,2013-07-07 23:05:00,
2013-07-07 16:10:00,87.8,46.5,29.83,SE,135,2.0,-999.0,24,0.00,,,0.00,Wunderground v.1.15,2013-07-07 23:10:00,
2013-07-07 16:15:00,87.5,45.1,29.83,SE,135,2.0,-999.0,23,0.00,,,0.00,Wunderground v.1.15,2013-07-07 23:15:00,
2013-07-07 16:20:00,87.5,45.1,29.83,SE,135,2.0,-999.0,23,0.00,,,0.00,Wunderground v.1.15,2013-07-07 23:20:00,
2013-07-07 16:25:00,87.2,46.0,29.83,ESE,113,1.0,-999.0,24,0.00,,,0.00,Wunderground v.1.15,2013-07-07 23:25:00,
2013-07-07 16:30:00,87.2,46.0,29.83,ESE,113,1.0,-999.0,24,0.00,,,0.00,Wunderground v.1.15,2013-07-07 23:30:00,
2013-07-07 16:35:00,87.6,46.3,29.83,SE,135,2.0,-999.0,24,0.00,,,0.00,Wunderground v.1.15,2013-07-07 23:35:00,
2013-07-07 16:40:00,87.6,46.3,29.83,SE,135,2.0,-999.0,24,0.00,,,0.00,Wunderground v.1.15,2013-07-07 23:40:00,
2013-07-07 16:45:00,87.5,45.1,29.83,ESE,113,2.0,-999.0,23,0.00,,,0.00,Wunderground v.1.15,2013-07-07 23:45:00,
2013-07-07 16:50:00,87.5,45.1,29.83,ESE,113,2.0,-999.0,23,0.00,,,0.00,Wunderground v.1.15,2013-07-07 23:50:00,
2013-07-07 16:55:00,86.9,46.8,29.83,SE,135,1.0,-999.0,25,0.00,,,0.00,Wunderground v.1.15,2013-07-07 23:55:00,
2013-07-07 17:00:00,86.9,46.8,29.83,SE,135,1.0,-999.0,25,0.00,,,0.00,Wunderground v.1.15,2013-07-08 00:00:00,
2013-07-07 17:05:00,87.0,45.8,29.83,SE,135,2.0,-999.0,24,0.00,,,0.00,Wunderground v.1.15,2013-07-08 00:05:00,
2013-07-07 17:10:00,87.0,45.8,29.83,SE,135,2.0,-999.0,24,0.00,,,0.00,Wunderground v.1.15,2013-07-08 00:10:00,
2013-07-07 17:15:00,86.7,45.6,29.83,SE,135,2.0,-999.0,24,0.00,,,0.00,Wunderground v.1.15,2013-07-08 00:15:00,
2013-07-07 17:20:00,86.7,45.6,29.83,SE,135,2.0,-999.0,24,0.00,,,0.00,Wunderground v.1.15,2013-07-08 00:20:00,
2013-07-07 17:25:00,86.5,45.4,29.83,SE,135,2.0,-999.0,24,0.00,,,0.00,Wunderground v.1.15,2013-07-08 00:25:00,
2013-07-07 17:30:00,86.5,45.4,29.83,SE,135,2.0,-999.0,24,0.00,,,0.00,Wunderground v.1.15,2013-07-08 00:30:00,
2013-07-07 17:35:00,85.9,44.9,29.82,SE,135,1.0,-999.0,24,0.00,,,0.00,Wunderground v.1.15,2013-07-08 00:35:00,
2013-07-07 17:40:00,85.9,44.9,29.82,SE,135,1.0,-999.0,24,0.00,,,0.00,Wunderground v.1.15,2013-07-08 00:40:00,
2013-07-07 17:45:00,85.7,43.6,29.82,SE,135,2.0,-999.0,23,0.00,,,0.00,Wunderground v.1.15,2013-07-08 00:45:00,
2013-07-07 17:50:00,85.7,43.6,29.82,SE,135,2.0,-999.0,23,0.00,,,0.00,Wunderground v.1.15,2013-07-08 00:50:00,
2013-07-07 17:55:00,85.4,44.5,29.82,SE,135,0.0,-999.0,24,0.00,,,0.00,Wunderground v.1.15,2013-07-08 00:55:00,
2013-07-07 18:00:00,85.4,44.5,29.82,SE,135,0.0,-999.0,24,0.00,,,0.00,Wunderground v.1.15,2013-07-08 01:00:00,
2013-07-07 18:05:00,85.2,45.4,29.82,SE,135,0.0,-999.0,25,0.00,,,0.00,Wunderground v.1.15,2013-07-08 01:05:00,
2013-07-07 18:10:00,85.2,45.4,29.82,SE,135,0.0,-999.0,25,0.00,,,0.00,Wunderground v.1.15,2013-07-08 01:10:00,
2013-07-07 18:24:00,84.3,43.6,29.82,SE,135,1.0,-999.0,24,0.00,,,0.00,Wunderground v.1.15,2013-07-08 01:24:00,
2013-07-07 18:30:00,83.6,43.0,29.82,SSE,149,1.0,1.0,24,0.00,,,0.00,Wunderground v.1.15,2013-07-08 01:30:00,
2013-07-07 18:35:00,83.7,44.1,29.82,SSE,148,1.0,1.0,25,0.00,,,0.00,Wunderground v.1.15,2013-07-08 01:35:00,
2013-07-07 18:45:00,83.6,43.0,29.82,SSE,148,1.0,2.0,24,0.00,,,0.00,Wunderground v.1.15,2013-07-08 01:45:00,
2013-07-07 18:55:00,83.4,43.9,29.83,East,94,1.0,1.0,25,0.00,,,0.00,Wunderground v.1.15,2013-07-08 01:55:00,
2013-07-07 19:00:00,83.2,42.6,29.83,East,100,0.0,0.0,24,0.00,,,0.00,Wunderground v.1.15,2013-07-08 02:00:00,
2013-07-07 19:10:00,82.9,43.5,29.83,ESE,103,1.0,1.0,25,0.00,,,0.00,Wunderground v.1.15,2013-07-08 02:10:00,
2013-07-07 19:15:00,82.8,43.4,29.83,ESE,105,1.0,1.0,25,0.00,,,0.00,Wunderground v.1.15,2013-07-08 02:15:00,
2013-07-07 19:20:00,82.5,43.1,29.83,ESE,105,0.0,0.0,25,0.00,,,0.00,Wunderground v.1.15,2013-07-08 02:20:00,
2013-07-07 19:25:00,82.3,44.0,29.83,SSW,198,0.0,1.0,26,0.00,,,0.00,Wunderground v.1.15,2013-07-08 02:25:00,
2013-07-07 19:30:00,82.2,45.8,29.83,ENE,63,0.0,1.0,28,0.00,,,0.00,Wunderground v.1.15,2013-07-08 02:30:00,
2013-07-07 19:40:00,81.6,48.9,29.83,ENE,63,0.0,0.0,32,0.00,,,0.00,Wunderground v.1.15,2013-07-08 02:40:00,
2013-07-07 19:45:00,81.2,49.4,29.83,ENE,63,0.0,0.0,33,0.00,,,0.00,Wunderground v.1.15,2013-07-08 02:45:00,
2013-07-07 19:50:00,80.9,49.9,29.83,ENE,63,0.0,0.0,34,0.00,,,0.00,Wunderground v.1.15,2013-07-08 02:50:00,
2013-07-07 19:55:00,80.5,50.3,29.83,ENE,63,0.0,0.0,35,0.00,,,0.00,Wunderground v.1.15,2013-07-08 02:55:00,
2013-07-07 20:00:00,80.0,50.6,29.83,ENE,63,0.0,0.0,36,0.00,,,0.00,Wunderground v.1.15,2013-07-08 03:00:00,
2013-07-07 20:10:00,79.4,50.1,29.83,ENE,63,0.0,0.0,36,0.00,,,0.00,Wunderground v.1.15,2013-07-08 03:10:00,
2013-07-07 20:15:00,79.2,50.7,29.83,ENE,63,0.0,0.0,37,0.00,,,0.00,Wunderground v.1.15,2013-07-08 03:15:00,
2013-07-07 20:25:00,78.7,50.2,29.84,ENE,63,0.0,0.0,37,0.00,,,0.00,Wunderground v.1.15,2013-07-08 03:25:00,
2013-07-07 20:35:00,78.4,50.0,29.84,ENE,63,0.0,0.0,37,0.00,,,0.00,Wunderground v.1.15,2013-07-08 03:35:00,
2013-07-07 20:45:00,78.1,49.7,29.84,ENE,63,0.0,0.0,37,0.00,,,0.00,Wunderground v.1.15,2013-07-08 03:45:00,
2013-07-07 20:50:00,78.0,50.3,29.84,ENE,63,0.0,0.0,38,0.00,,,0.00,Wunderground v.1.15,2013-07-08 03:50:00,
2013-07-07 21:00:00,77.4,50.5,29.84,ENE,63,0.0,0.0,39,0.00,,,0.00,Wunderground v.1.15,2013-07-08 04:00:00,
2013-07-07 21:05:00,77.2,50.3,29.84,ENE,63,0.0,0.0,39,0.00,,,0.00,Wunderground v.1.15,2013-07-08 04:05:00,
2013-07-07 21:10:00,76.9,50.7,29.85,ENE,63,0.0,0.0,40,0.00,,,0.00,Wunderground v.1.15,2013-07-08 04:10:00,
2013-07-07 21:15:00,76.5,50.4,29.85,ENE,63,0.0,0.0,40,0.00,,,0.00,Wunderground v.1.15,2013-07-08 04:15:00,
2013-07-07 21:20:00,76.2,50.8,29.85,ENE,63,0.0,0.0,41,0.00,,,0.00,Wunderground v.1.15,2013-07-08 04:20:00,
2013-07-07 21:25:00,76.0,50.6,29.85,ENE,63,0.0,0.0,41,0.00,,,0.00,Wunderground v.1.15,2013-07-08 04:25:00,
2013-07-07 21:30:00,76.0,50.6,29.85,ENE,63,0.0,0.0,41,0.00,,,0.00,Wunderground v.1.15,2013-07-08 04:30:00,
2013-07-07 21:35:00,76.0,50.6,29.85,ENE,63,0.0,0.0,41,0.00,,,0.00,Wunderground v.1.15,2013-07-08 04:35:00,
2013-07-07 21:40:00,75.9,50.5,29.86,ENE,63,0.0,0.0,41,0.00,,,0.00,Wunderground v.1.15,2013-07-08 04:40:00,
2013-07-07 21:45:00,75.7,51.0,29.86,ENE,63,0.0,0.0,42,0.00,,,0.00,Wunderground v.1.15,2013-07-08 04:45:00,
2013-07-07 21:55:00,74.9,50.9,29.86,ENE,63,0.0,0.0,43,0.00,,,0.00,Wunderground v.1.15,2013-07-08 04:55:00,
2013-07-07 22:00:00,74.6,50.6,29.86,ENE,63,0.0,0.0,43,0.00,,,0.00,Wunderground v.1.15,2013-07-08 05:00:00,
2013-07-07 22:10:00,74.3,51.0,29.87,ENE,63,0.0,0.0,44,0.00,,,0.00,Wunderground v.1.15,2013-07-08 05:10:00,
2013-07-07 22:15:00,74.3,50.4,29.87,ENE,63,0.0,0.0,43,0.00,,,0.00,Wunderground v.1.15,2013-07-08 05:15:00,
2013-07-07 22:20:00,74.2,49.6,29.87,ENE,63,0.0,0.0,42,0.00,,,0.00,Wunderground v.1.15,2013-07-08 05:20:00,
2013-07-07 22:25:00,74.1,48.9,29.87,ENE,63,0.0,0.0,41,0.00,,,0.00,Wunderground v.1.15,2013-07-08 05:25:00,
2013-07-07 22:30:00,74.1,48.9,29.87,ENE,63,0.0,0.0,41,0.00,,,0.00,Wunderground v.1.15,2013-07-08 05:30:00,
2013-07-07 22:35:00,73.9,51.8,29.87,ENE,63,0.0,0.0,46,0.00,,,0.00,Wunderground v.1.15,2013-07-08 05:35:00,
2013-07-07 22:40:00,73.2,50.6,29.87,ENE,63,0.0,0.0,45,0.00,,,0.00,Wunderground v.1.15,2013-07-08 05:40:00,
2013-07-07 22:45:00,72.2,50.8,29.87,ENE,63,1.0,1.0,47,0.00,,,0.00,Wunderground v.1.15,2013-07-08 05:45:00,
2013-07-07 22:55:00,72.1,49.6,29.87,ENE,63,0.0,1.0,45,0.00,,,0.00,Wunderground v.1.15,2013-07-08 05:55:00,
2013-07-07 23:00:00,72.2,50.8,29.87,ENE,63,0.0,0.0,47,0.00,,,0.00,Wunderground v.1.15,2013-07-08 06:00:00,
2013-07-07 23:05:00,71.9,51.1,29.87,ENE,68,0.0,-999.0,48,0.00,,,0.00,Wunderground v.1.15,2013-07-08 06:05:00,
2013-07-07 23:10:00,71.7,51.0,29.87,ENE,63,0.0,0.0,48,0.00,,,0.00,Wunderground v.1.15,2013-07-08 06:10:00,
2013-07-07 23:15:00,71.5,50.2,29.87,ENE,63,0.0,0.0,47,0.00,,,0.00,Wunderground v.1.15,2013-07-08 06:15:00,
2013-07-07 23:20:00,71.2,51.1,29.87,ENE,63,0.0,1.0,49,0.00,,,0.00,Wunderground v.1.15,2013-07-08 06:20:00,
2013-07-07 23:25:00,70.8,50.7,29.87,ENE,63,0.0,1.0,49,0.00,,,0.00,Wunderground v.1.15,2013-07-08 06:25:00,
2013-07-07 23:30:00,70.6,51.6,29.87,ENE,63,0.0,1.0,51,0.00,,,0.00,Wunderground v.1.15,2013-07-08 06:30:00,
2013-07-07 23:35:00,70.3,50.2,29.87,ENE,63,0.0,1.0,49,0.00,,,0.00,Wunderground v.1.15,2013-07-08 06:35:00,
2013-07-07 23:40:00,70.3,50.2,29.88,ENE,63,0.0,0.0,49,0.00,,,0.00,Wunderground v.1.15,2013-07-08 06:40:00,
2013-07-07 23:45:00,70.2,52.3,29.87,ENE,68,0.0,-999.0,53,0.00,,,0.00,Wunderground v.1.15,2013-07-08 06:45:00,
2013-07-07 23:50:00,70.2,52.3,29.87,ENE,68,0.0,-999.0,53,0.00,,,0.00,Wunderground v.1.15,2013-07-08 06:50:00,
2013-07-07 23:55:00,69.6,50.7,29.88,ENE,68,0.0,-999.0,51,0.00,,,0.00,Wunderground v.1.15,2013-07-08 06:55:00,